sensor_id;sensor_type;location;lat;lon;timestamp;P1;durP1;ratioP1;P2;durP2;ratioP2
25758;SDS011;13604;52.496;13.456;2024-03-29T00:00:23;1.58;;;0.80;;
25758;SDS011;13604;52.496;13.456;2024-03-29T00:02:49;5.03;;;1.08;;
25758;SDS011;13604;52.496;13.456;2024-03-29T00:05:14;3.85;;;0.80;;
25758;SDS011;13604;52.496;13.456;2024-03-29T00:07:39;1.85;;;1.10;;
25758;SDS011;13604;52.496;13.456;2024-03-29T00:10:04;1.75;;;0.82;;
25758;SDS011;13604;52.496;13.456;2024-03-29T00:12:30;2.45;;;0.93;;
25758;SDS011;13604;52.496;13.456;2024-03-29T00:14:55;1.92;;;0.88;;
25758;SDS011;13604;52.496;13.456;2024-03-29T00:17:21;3.75;;;0.80;;
25758;SDS011;13604;52.496;13.456;2024-03-29T00:19:46;1.70;;;0.85;;
25758;SDS011;13604;52.496;13.456;2024-03-29T00:22:12;2.88;;;1.20;;
25758;SDS011;13604;52.496;13.456;2024-03-29T00:24:37;2.90;;;0.80;;
25758;SDS011;13604;52.496;13.456;2024-03-29T00:27:02;3.08;;;1.17;;
25758;SDS011;13604;52.496;13.456;2024-03-29T00:29:29;2.03;;;0.93;;
25758;SDS011;13604;52.496;13.456;2024-03-29T00:31:54;2.63;;;0.82;;
25758;SDS011;13604;52.496;13.456;2024-03-29T00:34:20;2.83;;;0.80;;
25758;SDS011;13604;52.496;13.456;2024-03-29T00:36:45;0.90;;;0.65;;
25758;SDS011;13604;52.496;13.456;2024-03-29T00:39:10;2.00;;;0.77;;
25758;SDS011;13604;52.496;13.456;2024-03-29T00:41:36;1.33;;;0.68;;
25758;SDS011;13604;52.496;13.456;2024-03-29T00:44:01;8.98;;;1.30;;
25758;SDS011;13604;52.496;13.456;2024-03-29T00:46:27;2.70;;;0.80;;
25758;SDS011;13604;52.496;13.456;2024-03-29T00:48:53;2.35;;;0.80;;
25758;SDS011;13604;52.496;13.456;2024-03-29T00:51:18;2.42;;;0.93;;
25758;SDS011;13604;52.496;13.456;2024-03-29T00:53:43;3.35;;;1.15;;
25758;SDS011;13604;52.496;13.456;2024-03-29T00:56:09;2.63;;;0.93;;
25758;SDS011;13604;52.496;13.456;2024-03-29T00:58:34;3.30;;;1.00;;
25758;SDS011;13604;52.496;13.456;2024-03-29T01:00:59;1.23;;;0.75;;
25758;SDS011;13604;52.496;13.456;2024-03-29T01:03:25;1.83;;;0.63;;
25758;SDS011;13604;52.496;13.456;2024-03-29T01:05:53;3.13;;;0.70;;
25758;SDS011;13604;52.496;13.456;2024-03-29T01:08:19;2.50;;;0.90;;
25758;SDS011;13604;52.496;13.456;2024-03-29T01:10:44;1.90;;;0.80;;
25758;SDS011;13604;52.496;13.456;2024-03-29T01:13:10;2.42;;;0.90;;
25758;SDS011;13604;52.496;13.456;2024-03-29T01:15:35;3.38;;;1.00;;
25758;SDS011;13604;52.496;13.456;2024-03-29T01:18:00;2.20;;;1.10;;
25758;SDS011;13604;52.496;13.456;2024-03-29T01:20:26;3.25;;;0.90;;
25758;SDS011;13604;52.496;13.456;2024-03-29T01:22:51;1.38;;;0.90;;
25758;SDS011;13604;52.496;13.456;2024-03-29T01:25:16;2.70;;;1.00;;
25758;SDS011;13604;52.496;13.456;2024-03-29T01:27:42;2.60;;;0.90;;
25758;SDS011;13604;52.496;13.456;2024-03-29T01:30:07;1.73;;;0.80;;
25758;SDS011;13604;52.496;13.456;2024-03-29T01:32:33;3.05;;;1.00;;
25758;SDS011;13604;52.496;13.456;2024-03-29T01:34:58;2.45;;;1.05;;
25758;SDS011;13604;52.496;13.456;2024-03-29T01:37:24;5.57;;;0.90;;
25758;SDS011;13604;52.496;13.456;2024-03-29T01:39:50;3.00;;;0.82;;
25758;SDS011;13604;52.496;13.456;2024-03-29T01:42:16;2.67;;;1.00;;
25758;SDS011;13604;52.496;13.456;2024-03-29T01:44:41;3.38;;;1.17;;
25758;SDS011;13604;52.496;13.456;2024-03-29T01:47:07;3.50;;;1.27;;
25758;SDS011;13604;52.496;13.456;2024-03-29T01:49:32;3.47;;;1.10;;
25758;SDS011;13604;52.496;13.456;2024-03-29T01:51:58;5.28;;;1.23;;
25758;SDS011;13604;52.496;13.456;2024-03-29T01:54:24;2.95;;;1.10;;
25758;SDS011;13604;52.496;13.456;2024-03-29T01:56:50;3.72;;;1.20;;
25758;SDS011;13604;52.496;13.456;2024-03-29T01:59:16;1.65;;;1.23;;
25758;SDS011;13604;52.496;13.456;2024-03-29T02:01:42;1.40;;;1.13;;
25758;SDS011;13604;52.496;13.456;2024-03-29T02:04:07;2.42;;;1.42;;
25758;SDS011;13604;52.496;13.456;2024-03-29T02:06:34;2.20;;;1.10;;
25758;SDS011;13604;52.496;13.456;2024-03-29T02:09:00;5.75;;;1.50;;
25758;SDS011;13604;52.496;13.456;2024-03-29T02:11:25;4.20;;;1.50;;
25758;SDS011;13604;52.496;13.456;2024-03-29T02:13:50;9.48;;;1.38;;
25758;SDS011;13604;52.496;13.456;2024-03-29T02:16:17;3.88;;;1.45;;
25758;SDS011;13604;52.496;13.456;2024-03-29T02:18:43;4.68;;;1.58;;
25758;SDS011;13604;52.496;13.456;2024-03-29T02:21:08;2.97;;;1.30;;
25758;SDS011;13604;52.496;13.456;2024-03-29T02:23:35;2.72;;;1.60;;
25758;SDS011;13604;52.496;13.456;2024-03-29T02:26:03;2.03;;;1.48;;
25758;SDS011;13604;52.496;13.456;2024-03-29T02:28:29;5.20;;;1.42;;
25758;SDS011;13604;52.496;13.456;2024-03-29T02:30:55;2.97;;;1.70;;
25758;SDS011;13604;52.496;13.456;2024-03-29T02:33:21;4.55;;;1.92;;
25758;SDS011;13604;52.496;13.456;2024-03-29T02:35:46;6.22;;;1.95;;
25758;SDS011;13604;52.496;13.456;2024-03-29T02:38:12;8.93;;;2.05;;
25758;SDS011;13604;52.496;13.456;2024-03-29T02:40:37;2.38;;;1.60;;
25758;SDS011;13604;52.496;13.456;2024-03-29T02:43:02;2.45;;;1.80;;
25758;SDS011;13604;52.496;13.456;2024-03-29T02:45:28;8.25;;;2.30;;
25758;SDS011;13604;52.496;13.456;2024-03-29T02:47:53;4.57;;;1.80;;
25758;SDS011;13604;52.496;13.456;2024-03-29T02:50:18;3.70;;;1.92;;
25758;SDS011;13604;52.496;13.456;2024-03-29T02:52:44;2.65;;;1.65;;
25758;SDS011;13604;52.496;13.456;2024-03-29T02:55:09;2.28;;;1.80;;
25758;SDS011;13604;52.496;13.456;2024-03-29T02:57:38;3.42;;;1.92;;
25758;SDS011;13604;52.496;13.456;2024-03-29T03:00:07;3.28;;;2.10;;
25758;SDS011;13604;52.496;13.456;2024-03-29T03:02:37;5.75;;;2.42;;
25758;SDS011;13604;52.496;13.456;2024-03-29T03:05:04;5.53;;;1.90;;
25758;SDS011;13604;52.496;13.456;2024-03-29T03:07:30;3.85;;;1.80;;
25758;SDS011;13604;52.496;13.456;2024-03-29T03:10:14;6.72;;;1.83;;
25758;SDS011;13604;52.496;13.456;2024-03-29T03:12:58;3.90;;;1.88;;
25758;SDS011;13604;52.496;13.456;2024-03-29T03:15:23;3.53;;;1.85;;
25758;SDS011;13604;52.496;13.456;2024-03-29T03:17:48;3.03;;;1.58;;
25758;SDS011;13604;52.496;13.456;2024-03-29T03:20:14;4.40;;;1.88;;
25758;SDS011;13604;52.496;13.456;2024-03-29T03:22:41;4.28;;;1.70;;
25758;SDS011;13604;52.496;13.456;2024-03-29T03:25:06;3.78;;;2.00;;
25758;SDS011;13604;52.496;13.456;2024-03-29T03:27:32;6.60;;;1.92;;
25758;SDS011;13604;52.496;13.456;2024-03-29T03:29:57;2.50;;;1.88;;
25758;SDS011;13604;52.496;13.456;2024-03-29T03:32:23;5.07;;;2.08;;
25758;SDS011;13604;52.496;13.456;2024-03-29T03:34:48;6.50;;;1.80;;
25758;SDS011;13604;52.496;13.456;2024-03-29T03:37:13;3.90;;;2.20;;
25758;SDS011;13604;52.496;13.456;2024-03-29T03:39:38;5.00;;;2.15;;
25758;SDS011;13604;52.496;13.456;2024-03-29T03:42:04;4.57;;;2.08;;
25758;SDS011;13604;52.496;13.456;2024-03-29T03:44:29;3.92;;;1.85;;
25758;SDS011;13604;52.496;13.456;2024-03-29T03:46:55;4.95;;;2.00;;
25758;SDS011;13604;52.496;13.456;2024-03-29T03:49:20;4.45;;;2.22;;
25758;SDS011;13604;52.496;13.456;2024-03-29T03:51:45;6.32;;;2.17;;
25758;SDS011;13604;52.496;13.456;2024-03-29T03:54:11;6.68;;;2.22;;
25758;SDS011;13604;52.496;13.456;2024-03-29T03:56:36;2.53;;;1.63;;
25758;SDS011;13604;52.496;13.456;2024-03-29T03:59:01;3.42;;;1.80;;
25758;SDS011;13604;52.496;13.456;2024-03-29T04:01:27;3.20;;;1.58;;
25758;SDS011;13604;52.496;13.456;2024-03-29T04:03:52;6.40;;;1.90;;
25758;SDS011;13604;52.496;13.456;2024-03-29T04:06:17;5.68;;;1.90;;
25758;SDS011;13604;52.496;13.456;2024-03-29T04:08:46;5.43;;;2.15;;
25758;SDS011;13604;52.496;13.456;2024-03-29T04:11:12;4.65;;;1.70;;
25758;SDS011;13604;52.496;13.456;2024-03-29T04:13:37;7.90;;;1.77;;
25758;SDS011;13604;52.496;13.456;2024-03-29T04:16:04;3.95;;;1.70;;
25758;SDS011;13604;52.496;13.456;2024-03-29T04:18:31;6.20;;;1.92;;
25758;SDS011;13604;52.496;13.456;2024-03-29T04:20:57;4.28;;;1.30;;
25758;SDS011;13604;52.496;13.456;2024-03-29T04:23:23;4.28;;;1.88;;
25758;SDS011;13604;52.496;13.456;2024-03-29T04:25:52;3.95;;;1.40;;
25758;SDS011;13604;52.496;13.456;2024-03-29T04:28:19;3.38;;;1.40;;
25758;SDS011;13604;52.496;13.456;2024-03-29T04:30:50;4.88;;;1.88;;
25758;SDS011;13604;52.496;13.456;2024-03-29T04:33:19;3.83;;;1.92;;
25758;SDS011;13604;52.496;13.456;2024-03-29T04:35:57;2.80;;;1.50;;
25758;SDS011;13604;52.496;13.456;2024-03-29T04:38:23;3.70;;;1.33;;
25758;SDS011;13604;52.496;13.456;2024-03-29T04:40:50;5.10;;;1.73;;
25758;SDS011;13604;52.496;13.456;2024-03-29T04:43:16;2.38;;;1.40;;
25758;SDS011;13604;52.496;13.456;2024-03-29T04:45:42;2.83;;;1.33;;
25758;SDS011;13604;52.496;13.456;2024-03-29T04:48:11;4.18;;;1.65;;
25758;SDS011;13604;52.496;13.456;2024-03-29T04:50:37;3.38;;;1.73;;
25758;SDS011;13604;52.496;13.456;2024-03-29T04:53:02;5.03;;;1.63;;
25758;SDS011;13604;52.496;13.456;2024-03-29T04:55:28;7.30;;;1.80;;
25758;SDS011;13604;52.496;13.456;2024-03-29T04:57:53;4.38;;;1.60;;
25758;SDS011;13604;52.496;13.456;2024-03-29T05:00:18;3.67;;;1.52;;
25758;SDS011;13604;52.496;13.456;2024-03-29T05:02:44;5.53;;;1.58;;
25758;SDS011;13604;52.496;13.456;2024-03-29T05:05:09;4.22;;;2.13;;
25758;SDS011;13604;52.496;13.456;2024-03-29T05:07:34;5.45;;;2.13;;
25758;SDS011;13604;52.496;13.456;2024-03-29T05:10:00;5.07;;;2.00;;
25758;SDS011;13604;52.496;13.456;2024-03-29T05:12:25;7.20;;;1.90;;
25758;SDS011;13604;52.496;13.456;2024-03-29T05:14:50;3.95;;;1.90;;
25758;SDS011;13604;52.496;13.456;2024-03-29T05:17:16;3.63;;;2.30;;
25758;SDS011;13604;52.496;13.456;2024-03-29T05:19:42;4.40;;;2.10;;
25758;SDS011;13604;52.496;13.456;2024-03-29T05:22:08;2.80;;;1.88;;
25758;SDS011;13604;52.496;13.456;2024-03-29T05:24:33;5.75;;;1.70;;
25758;SDS011;13604;52.496;13.456;2024-03-29T05:26:58;3.28;;;2.00;;
25758;SDS011;13604;52.496;13.456;2024-03-29T05:29:24;4.10;;;2.20;;
25758;SDS011;13604;52.496;13.456;2024-03-29T05:31:49;3.70;;;1.58;;
25758;SDS011;13604;52.496;13.456;2024-03-29T05:34:14;5.38;;;1.73;;
25758;SDS011;13604;52.496;13.456;2024-03-29T05:36:40;5.30;;;1.77;;
25758;SDS011;13604;52.496;13.456;2024-03-29T05:39:05;5.15;;;1.70;;
25758;SDS011;13604;52.496;13.456;2024-03-29T05:41:30;4.72;;;2.00;;
25758;SDS011;13604;52.496;13.456;2024-03-29T05:43:56;10.23;;;2.17;;
25758;SDS011;13604;52.496;13.456;2024-03-29T05:46:22;3.05;;;1.58;;
25758;SDS011;13604;52.496;13.456;2024-03-29T05:48:47;2.55;;;1.50;;
25758;SDS011;13604;52.496;13.456;2024-03-29T05:51:12;6.32;;;2.00;;
25758;SDS011;13604;52.496;13.456;2024-03-29T05:53:38;1.67;;;1.23;;
25758;SDS011;13604;52.496;13.456;2024-03-29T05:56:03;2.70;;;1.50;;
25758;SDS011;13604;52.496;13.456;2024-03-29T05:58:29;8.50;;;1.80;;
25758;SDS011;13604;52.496;13.456;2024-03-29T06:00:54;3.95;;;1.83;;
25758;SDS011;13604;52.496;13.456;2024-03-29T06:03:20;5.10;;;1.65;;
25758;SDS011;13604;52.496;13.456;2024-03-29T06:05:45;3.03;;;1.42;;
25758;SDS011;13604;52.496;13.456;2024-03-29T06:08:11;5.65;;;1.85;;
25758;SDS011;13604;52.496;13.456;2024-03-29T06:10:36;4.30;;;1.63;;
25758;SDS011;13604;52.496;13.456;2024-03-29T06:13:02;3.30;;;1.52;;
25758;SDS011;13604;52.496;13.456;2024-03-29T06:15:33;7.97;;;1.65;;
25758;SDS011;13604;52.496;13.456;2024-03-29T06:20:44;3.15;;;1.70;;
25758;SDS011;13604;52.496;13.456;2024-03-29T06:23:09;4.40;;;1.40;;
25758;SDS011;13604;52.496;13.456;2024-03-29T06:25:35;5.53;;;1.40;;
25758;SDS011;13604;52.496;13.456;2024-03-29T06:28:00;3.42;;;1.38;;
25758;SDS011;13604;52.496;13.456;2024-03-29T06:30:25;4.05;;;1.80;;
25758;SDS011;13604;52.496;13.456;2024-03-29T06:32:51;4.82;;;1.45;;
25758;SDS011;13604;52.496;13.456;2024-03-29T06:35:16;4.72;;;1.58;;
25758;SDS011;13604;52.496;13.456;2024-03-29T06:37:41;1.98;;;1.73;;
25758;SDS011;13604;52.496;13.456;2024-03-29T06:40:07;1.90;;;1.30;;
25758;SDS011;13604;52.496;13.456;2024-03-29T06:42:33;6.63;;;1.55;;
25758;SDS011;13604;52.496;13.456;2024-03-29T06:44:58;6.53;;;1.48;;
25758;SDS011;13604;52.496;13.456;2024-03-29T06:47:24;7.93;;;1.80;;
25758;SDS011;13604;52.496;13.456;2024-03-29T06:49:49;3.10;;;1.30;;
25758;SDS011;13604;52.496;13.456;2024-03-29T06:52:15;2.05;;;1.13;;
25758;SDS011;13604;52.496;13.456;2024-03-29T06:54:41;3.72;;;1.20;;
25758;SDS011;13604;52.496;13.456;2024-03-29T06:57:07;2.22;;;1.20;;
25758;SDS011;13604;52.496;13.456;2024-03-29T06:59:34;3.00;;;1.15;;
25758;SDS011;13604;52.496;13.456;2024-03-29T07:01:59;2.90;;;1.00;;
25758;SDS011;13604;52.496;13.456;2024-03-29T07:04:24;2.95;;;1.15;;
25758;SDS011;13604;52.496;13.456;2024-03-29T07:06:50;4.13;;;1.20;;
25758;SDS011;13604;52.496;13.456;2024-03-29T07:09:17;4.20;;;1.30;;
25758;SDS011;13604;52.496;13.456;2024-03-29T07:11:46;2.15;;;0.93;;
25758;SDS011;13604;52.496;13.456;2024-03-29T07:14:16;4.68;;;1.33;;
25758;SDS011;13604;52.496;13.456;2024-03-29T07:16:42;12.32;;;1.15;;
25758;SDS011;13604;52.496;13.456;2024-03-29T07:19:08;3.55;;;1.02;;
25758;SDS011;13604;52.496;13.456;2024-03-29T07:21:34;3.45;;;1.27;;
25758;SDS011;13604;52.496;13.456;2024-03-29T07:23:59;6.18;;;1.40;;
25758;SDS011;13604;52.496;13.456;2024-03-29T07:26:24;3.63;;;1.20;;
25758;SDS011;13604;52.496;13.456;2024-03-29T07:28:50;4.07;;;1.08;;
25758;SDS011;13604;52.496;13.456;2024-03-29T07:31:15;6.53;;;1.88;;
25758;SDS011;13604;52.496;13.456;2024-03-29T07:33:40;1.58;;;0.93;;
25758;SDS011;13604;52.496;13.456;2024-03-29T07:36:06;3.00;;;1.10;;
25758;SDS011;13604;52.496;13.456;2024-03-29T07:38:31;5.32;;;1.20;;
25758;SDS011;13604;52.496;13.456;2024-03-29T07:40:56;2.75;;;1.38;;
25758;SDS011;13604;52.496;13.456;2024-03-29T07:43:22;5.63;;;1.35;;
25758;SDS011;13604;52.496;13.456;2024-03-29T07:45:47;2.50;;;1.20;;
25758;SDS011;13604;52.496;13.456;2024-03-29T07:48:13;2.45;;;1.20;;
25758;SDS011;13604;52.496;13.456;2024-03-29T07:50:44;3.28;;;1.30;;
25758;SDS011;13604;52.496;13.456;2024-03-29T07:53:10;3.63;;;1.42;;
25758;SDS011;13604;52.496;13.456;2024-03-29T07:55:37;2.50;;;1.20;;
25758;SDS011;13604;52.496;13.456;2024-03-29T07:58:03;4.10;;;1.40;;
25758;SDS011;13604;52.496;13.456;2024-03-29T08:00:30;2.92;;;1.30;;
25758;SDS011;13604;52.496;13.456;2024-03-29T08:02:56;4.43;;;0.93;;
25758;SDS011;13604;52.496;13.456;2024-03-29T08:05:22;6.50;;;1.27;;
25758;SDS011;13604;52.496;13.456;2024-03-29T08:07:47;3.65;;;1.05;;
25758;SDS011;13604;52.496;13.456;2024-03-29T08:10:12;3.30;;;1.10;;
25758;SDS011;13604;52.496;13.456;2024-03-29T08:12:38;4.78;;;1.42;;
25758;SDS011;13604;52.496;13.456;2024-03-29T08:15:03;5.75;;;1.40;;
25758;SDS011;13604;52.496;13.456;2024-03-29T08:17:29;3.22;;;1.20;;
25758;SDS011;13604;52.496;13.456;2024-03-29T08:19:55;2.08;;;1.15;;
25758;SDS011;13604;52.496;13.456;2024-03-29T08:22:20;4.15;;;1.30;;
25758;SDS011;13604;52.496;13.456;2024-03-29T08:24:45;4.03;;;1.30;;
25758;SDS011;13604;52.496;13.456;2024-03-29T08:27:11;5.07;;;1.02;;
25758;SDS011;13604;52.496;13.456;2024-03-29T08:29:36;2.90;;;0.95;;
25758;SDS011;13604;52.496;13.456;2024-03-29T08:32:02;5.47;;;1.42;;
25758;SDS011;13604;52.496;13.456;2024-03-29T08:34:28;3.20;;;1.33;;
25758;SDS011;13604;52.496;13.456;2024-03-29T08:36:59;2.28;;;0.95;;
25758;SDS011;13604;52.496;13.456;2024-03-29T08:39:24;4.85;;;1.15;;
25758;SDS011;13604;52.496;13.456;2024-03-29T08:41:50;3.25;;;0.95;;
25758;SDS011;13604;52.496;13.456;2024-03-29T08:44:16;2.35;;;1.10;;
25758;SDS011;13604;52.496;13.456;2024-03-29T08:46:42;3.38;;;1.23;;
25758;SDS011;13604;52.496;13.456;2024-03-29T08:49:07;3.00;;;1.25;;
25758;SDS011;13604;52.496;13.456;2024-03-29T08:51:33;3.08;;;1.20;;
25758;SDS011;13604;52.496;13.456;2024-03-29T08:53:58;3.50;;;1.30;;
25758;SDS011;13604;52.496;13.456;2024-03-29T08:56:23;4.43;;;1.80;;
25758;SDS011;13604;52.496;13.456;2024-03-29T08:58:49;4.82;;;1.85;;
25758;SDS011;13604;52.496;13.456;2024-03-29T09:01:14;2.90;;;1.52;;
25758;SDS011;13604;52.496;13.456;2024-03-29T09:03:40;5.75;;;1.63;;
25758;SDS011;13604;52.496;13.456;2024-03-29T09:06:05;4.78;;;1.27;;
25758;SDS011;13604;52.496;13.456;2024-03-29T09:08:31;5.57;;;1.30;;
25758;SDS011;13604;52.496;13.456;2024-03-29T09:10:56;2.13;;;1.30;;
25758;SDS011;13604;52.496;13.456;2024-03-29T09:13:21;5.93;;;1.70;;
25758;SDS011;13604;52.496;13.456;2024-03-29T09:15:47;4.85;;;1.33;;
25758;SDS011;13604;52.496;13.456;2024-03-29T09:18:14;1.77;;;1.05;;
25758;SDS011;13604;52.496;13.456;2024-03-29T09:20:44;1.83;;;1.27;;
25758;SDS011;13604;52.496;13.456;2024-03-29T09:23:10;4.68;;;1.38;;
25758;SDS011;13604;52.496;13.456;2024-03-29T09:25:39;2.08;;;1.15;;
25758;SDS011;13604;52.496;13.456;2024-03-29T09:28:05;3.63;;;1.40;;
25758;SDS011;13604;52.496;13.456;2024-03-29T09:30:30;3.17;;;0.90;;
25758;SDS011;13604;52.496;13.456;2024-03-29T09:32:55;1.58;;;0.98;;
25758;SDS011;13604;52.496;13.456;2024-03-29T09:35:21;3.58;;;1.17;;
25758;SDS011;13604;52.496;13.456;2024-03-29T09:37:46;3.60;;;1.33;;
25758;SDS011;13604;52.496;13.456;2024-03-29T09:40:11;3.45;;;1.33;;
25758;SDS011;13604;52.496;13.456;2024-03-29T09:42:38;0.75;;;0.75;;
25758;SDS011;13604;52.496;13.456;2024-03-29T09:45:04;4.20;;;1.30;;
25758;SDS011;13604;52.496;13.456;2024-03-29T09:47:31;2.78;;;1.00;;
25758;SDS011;13604;52.496;13.456;2024-03-29T09:49:58;3.85;;;1.52;;
25758;SDS011;13604;52.496;13.456;2024-03-29T09:52:33;3.03;;;1.67;;
25758;SDS011;13604;52.496;13.456;2024-03-29T09:55:00;3.10;;;1.20;;
25758;SDS011;13604;52.496;13.456;2024-03-29T09:57:26;2.67;;;1.17;;
25758;SDS011;13604;52.496;13.456;2024-03-29T09:59:56;1.98;;;1.00;;
25758;SDS011;13604;52.496;13.456;2024-03-29T10:02:22;4.20;;;1.40;;
25758;SDS011;13604;52.496;13.456;2024-03-29T10:04:56;5.57;;;1.75;;
25758;SDS011;13604;52.496;13.456;2024-03-29T10:07:22;2.70;;;1.20;;
25758;SDS011;13604;52.496;13.456;2024-03-29T10:09:48;4.93;;;1.42;;
25758;SDS011;13604;52.496;13.456;2024-03-29T10:12:15;3.15;;;1.40;;
25758;SDS011;13604;52.496;13.456;2024-03-29T10:14:43;5.15;;;1.30;;
25758;SDS011;13604;52.496;13.456;2024-03-29T10:17:15;2.10;;;1.50;;
25758;SDS011;13604;52.496;13.456;2024-03-29T10:19:42;3.25;;;1.13;;
25758;SDS011;13604;52.496;13.456;2024-03-29T10:22:07;6.97;;;1.17;;
25758;SDS011;13604;52.496;13.456;2024-03-29T10:24:33;4.07;;;1.50;;
25758;SDS011;13604;52.496;13.456;2024-03-29T10:26:58;4.20;;;1.30;;
25758;SDS011;13604;52.496;13.456;2024-03-29T10:29:27;2.50;;;1.13;;
25758;SDS011;13604;52.496;13.456;2024-03-29T10:31:56;2.72;;;0.90;;
25758;SDS011;13604;52.496;13.456;2024-03-29T10:34:21;2.40;;;1.23;;
25758;SDS011;13604;52.496;13.456;2024-03-29T10:36:48;2.38;;;1.10;;
25758;SDS011;13604;52.496;13.456;2024-03-29T10:39:15;2.22;;;1.10;;
25758;SDS011;13604;52.496;13.456;2024-03-29T10:41:41;2.20;;;1.17;;
25758;SDS011;13604;52.496;13.456;2024-03-29T10:44:08;3.55;;;0.90;;
25758;SDS011;13604;52.496;13.456;2024-03-29T10:46:39;2.30;;;1.20;;
25758;SDS011;13604;52.496;13.456;2024-03-29T10:49:06;6.13;;;1.10;;
25758;SDS011;13604;52.496;13.456;2024-03-29T10:51:34;4.53;;;1.17;;
25758;SDS011;13604;52.496;13.456;2024-03-29T10:54:05;2.38;;;1.10;;
25758;SDS011;13604;52.496;13.456;2024-03-29T10:56:31;3.13;;;1.27;;
25758;SDS011;13604;52.496;13.456;2024-03-29T10:58:59;1.02;;;0.73;;
25758;SDS011;13604;52.496;13.456;2024-03-29T11:01:28;1.85;;;1.10;;
25758;SDS011;13604;52.496;13.456;2024-03-29T11:03:58;4.68;;;1.20;;
25758;SDS011;13604;52.496;13.456;2024-03-29T11:06:31;2.20;;;1.20;;
25758;SDS011;13604;52.496;13.456;2024-03-29T11:09:02;1.98;;;1.10;;
25758;SDS011;13604;52.496;13.456;2024-03-29T11:11:30;1.42;;;1.02;;
25758;SDS011;13604;52.496;13.456;2024-03-29T11:14:07;2.67;;;0.82;;
25758;SDS011;13604;52.496;13.456;2024-03-29T11:16:39;1.48;;;0.90;;
25758;SDS011;13604;52.496;13.456;2024-03-29T11:19:10;4.30;;;1.13;;
25758;SDS011;13604;52.496;13.456;2024-03-29T11:21:37;2.47;;;1.15;;
25758;SDS011;13604;52.496;13.456;2024-03-29T11:24:04;3.88;;;0.90;;
25758;SDS011;13604;52.496;13.456;2024-03-29T11:26:29;2.63;;;1.00;;
25758;SDS011;13604;52.496;13.456;2024-03-29T11:28:55;3.13;;;0.90;;
25758;SDS011;13604;52.496;13.456;2024-03-29T11:31:22;1.27;;;0.90;;
25758;SDS011;13604;52.496;13.456;2024-03-29T11:33:48;1.48;;;1.00;;
25758;SDS011;13604;52.496;13.456;2024-03-29T11:36:17;2.90;;;0.77;;
25758;SDS011;13604;52.496;13.456;2024-03-29T11:38:46;1.33;;;0.95;;
25758;SDS011;13604;52.496;13.456;2024-03-29T11:41:15;0.90;;;0.80;;
25758;SDS011;13604;52.496;13.456;2024-03-29T11:43:42;2.35;;;0.85;;
25758;SDS011;13604;52.496;13.456;2024-03-29T11:46:09;1.35;;;0.73;;
25758;SDS011;13604;52.496;13.456;2024-03-29T11:48:35;0.95;;;0.82;;
25758;SDS011;13604;52.496;13.456;2024-03-29T11:51:01;1.48;;;0.90;;
25758;SDS011;13604;52.496;13.456;2024-03-29T11:53:28;1.05;;;0.60;;
25758;SDS011;13604;52.496;13.456;2024-03-29T11:55:54;2.08;;;0.90;;
25758;SDS011;13604;52.496;13.456;2024-03-29T11:58:22;1.05;;;0.85;;
25758;SDS011;13604;52.496;13.456;2024-03-29T12:00:49;1.65;;;0.82;;
25758;SDS011;13604;52.496;13.456;2024-03-29T12:03:16;1.95;;;0.90;;
25758;SDS011;13604;52.496;13.456;2024-03-29T12:05:42;1.27;;;0.60;;
25758;SDS011;13604;52.496;13.456;2024-03-29T12:08:08;3.30;;;0.90;;
25758;SDS011;13604;52.496;13.456;2024-03-29T12:10:35;2.33;;;0.80;;
25758;SDS011;13604;52.496;13.456;2024-03-29T12:13:02;2.80;;;1.08;;
25758;SDS011;13604;52.496;13.456;2024-03-29T12:15:27;2.33;;;0.88;;
25758;SDS011;13604;52.496;13.456;2024-03-29T12:17:54;1.08;;;0.90;;
25758;SDS011;13604;52.496;13.456;2024-03-29T12:20:20;1.73;;;0.68;;
25758;SDS011;13604;52.496;13.456;2024-03-29T12:22:45;2.03;;;0.88;;
25758;SDS011;13604;52.496;13.456;2024-03-29T12:25:11;3.22;;;0.98;;
25758;SDS011;13604;52.496;13.456;2024-03-29T12:27:37;1.58;;;0.98;;
25758;SDS011;13604;52.496;13.456;2024-03-29T12:30:03;2.80;;;1.65;;
25758;SDS011;13604;52.496;13.456;2024-03-29T12:32:29;2.05;;;0.70;;
25758;SDS011;13604;52.496;13.456;2024-03-29T12:35:06;3.90;;;1.23;;
25758;SDS011;13604;52.496;13.456;2024-03-29T12:37:35;2.25;;;1.08;;
25758;SDS011;13604;52.496;13.456;2024-03-29T12:40:01;2.47;;;0.90;;
25758;SDS011;13604;52.496;13.456;2024-03-29T12:42:36;1.85;;;0.90;;
25758;SDS011;13604;52.496;13.456;2024-03-29T12:45:02;1.95;;;1.13;;
25758;SDS011;13604;52.496;13.456;2024-03-29T12:47:28;2.80;;;1.23;;
25758;SDS011;13604;52.496;13.456;2024-03-29T12:49:53;1.58;;;1.10;;
25758;SDS011;13604;52.496;13.456;2024-03-29T12:52:20;5.93;;;1.20;;
25758;SDS011;13604;52.496;13.456;2024-03-29T12:54:45;0.80;;;0.80;;
25758;SDS011;13604;52.496;13.456;2024-03-29T12:57:11;2.28;;;0.90;;
25758;SDS011;13604;52.496;13.456;2024-03-29T12:59:36;1.50;;;1.00;;
25758;SDS011;13604;52.496;13.456;2024-03-29T13:02:02;1.15;;;1.00;;
25758;SDS011;13604;52.496;13.456;2024-03-29T13:04:29;1.20;;;0.70;;
25758;SDS011;13604;52.496;13.456;2024-03-29T13:06:54;1.52;;;0.90;;
25758;SDS011;13604;52.496;13.456;2024-03-29T13:09:20;0.90;;;0.77;;
25758;SDS011;13604;52.496;13.456;2024-03-29T13:11:45;4.68;;;1.02;;
25758;SDS011;13604;52.496;13.456;2024-03-29T13:14:10;0.95;;;0.88;;
25758;SDS011;13604;52.496;13.456;2024-03-29T13:16:36;6.00;;;0.82;;
25758;SDS011;13604;52.496;13.456;2024-03-29T13:19:01;4.70;;;0.88;;
25758;SDS011;13604;52.496;13.456;2024-03-29T13:21:28;2.42;;;1.08;;
25758;SDS011;13604;52.496;13.456;2024-03-29T13:23:53;2.25;;;1.17;;
25758;SDS011;13604;52.496;13.456;2024-03-29T13:26:19;1.20;;;1.10;;
25758;SDS011;13604;52.496;13.456;2024-03-29T13:28:44;2.42;;;1.15;;
25758;SDS011;13604;52.496;13.456;2024-03-29T13:31:10;1.67;;;0.70;;
25758;SDS011;13604;52.496;13.456;2024-03-29T13:33:35;5.28;;;1.20;;
25758;SDS011;13604;52.496;13.456;2024-03-29T13:36:00;3.42;;;1.25;;
25758;SDS011;13604;52.496;13.456;2024-03-29T13:38:26;3.55;;;1.23;;
25758;SDS011;13604;52.496;13.456;2024-03-29T13:40:51;3.53;;;1.50;;
25758;SDS011;13604;52.496;13.456;2024-03-29T13:43:17;3.58;;;1.05;;
25758;SDS011;13604;52.496;13.456;2024-03-29T13:45:43;1.98;;;1.13;;
25758;SDS011;13604;52.496;13.456;2024-03-29T13:48:08;5.00;;;1.13;;
25758;SDS011;13604;52.496;13.456;2024-03-29T13:50:33;2.40;;;1.00;;
25758;SDS011;13604;52.496;13.456;2024-03-29T13:52:59;2.67;;;0.88;;
25758;SDS011;13604;52.496;13.456;2024-03-29T13:55:24;2.83;;;1.13;;
25758;SDS011;13604;52.496;13.456;2024-03-29T13:57:52;1.67;;;1.20;;
25758;SDS011;13604;52.496;13.456;2024-03-29T14:00:19;2.83;;;1.15;;
25758;SDS011;13604;52.496;13.456;2024-03-29T14:02:45;3.15;;;1.23;;
25758;SDS011;13604;52.496;13.456;2024-03-29T14:05:10;2.25;;;1.10;;
25758;SDS011;13604;52.496;13.456;2024-03-29T14:07:36;2.92;;;1.10;;
25758;SDS011;13604;52.496;13.456;2024-03-29T14:10:01;1.48;;;0.93;;
25758;SDS011;13604;52.496;13.456;2024-03-29T14:12:29;2.85;;;1.30;;
25758;SDS011;13604;52.496;13.456;2024-03-29T14:14:54;1.85;;;0.88;;
25758;SDS011;13604;52.496;13.456;2024-03-29T14:17:19;4.30;;;1.10;;
25758;SDS011;13604;52.496;13.456;2024-03-29T14:19:46;2.13;;;1.15;;
25758;SDS011;13604;52.496;13.456;2024-03-29T14:22:12;3.03;;;1.35;;
25758;SDS011;13604;52.496;13.456;2024-03-29T14:24:40;2.50;;;1.00;;
25758;SDS011;13604;52.496;13.456;2024-03-29T14:27:06;2.20;;;1.23;;
25758;SDS011;13604;52.496;13.456;2024-03-29T14:29:34;3.25;;;1.00;;